createdAt,value
2018-06-17T09:13:41.686Z,65
2018-06-17T09:16:26.698Z,60
2018-06-17T09:19:13.788Z,50
2018-06-17T09:21:15.923Z,55
2018-06-17T09:23:18.202Z,50
2018-06-17T09:25:20.382Z,50
2018-06-17T09:27:22.226Z,50
2018-06-17T09:29:24.523Z,50
2018-06-17T09:31:26.753Z,45
2018-06-17T09:34:16.970Z,40
2018-06-17T09:36:19.030Z,40
2018-06-17T09:38:21.070Z,45
2018-06-17T09:40:23.162Z,45
2018-06-17T09:42:25.214Z,50
2018-06-17T09:44:27.066Z,55
2018-06-17T09:46:28.972Z,55
2018-06-17T09:48:30.978Z,80
2018-06-17T09:50:33.050Z,70
2018-06-17T09:52:34.972Z,85
2018-06-17T09:54:37.097Z,70
2018-06-17T09:56:39.102Z,70
2018-06-17T09:58:41.003Z,75
2018-06-17T10:00:43.078Z,100
2018-06-17T10:02:44.884Z,110
2018-06-17T10:04:46.735Z,60
2018-06-17T10:06:48.631Z,45
2018-06-17T10:08:50.415Z,45
2018-06-17T10:10:52.337Z,60
2018-06-17T10:12:54.400Z,110
2018-06-17T10:14:57.360Z,125
2018-06-17T10:16:59.272Z,90
2018-06-17T10:19:01.314Z,70
2018-06-17T10:21:03.355Z,65
2018-06-17T10:23:05.339Z,65
2018-06-17T10:25:07.299Z,60
2018-06-17T10:27:09.074Z,65
2018-06-17T10:29:52.459Z,70
2018-06-17T10:31:54.179Z,80
2018-06-17T10:35:47.210Z,70
2018-06-17T10:39:57.443Z,60
2018-06-17T10:43:13.626Z,60
2018-06-17T10:45:16.073Z,70
2018-06-17T10:47:18.123Z,65
2018-06-17T10:49:51.876Z,65
2018-06-17T10:53:21.815Z,80
2018-06-17T10:56:12.343Z,65
2018-06-17T10:58:14.512Z,60
2018-06-17T11:00:16.820Z,55
2018-06-17T11:03:38.291Z,60
2018-06-17T11:05:41.356Z,55
2018-06-17T11:09:08.457Z,55
2018-06-17T11:11:11.014Z,55
2018-06-17T11:13:13.286Z,55
2018-06-17T11:15:30.754Z,60
2018-06-17T11:17:33.027Z,60
2018-06-17T11:20:00.218Z,60
2018-06-17T11:22:02.461Z,60
2018-06-17T11:24:48.473Z,55
2018-06-17T11:27:36.097Z,55
2018-06-17T11:30:33.292Z,50
2018-06-17T11:32:35.266Z,50
2018-06-17T11:34:37.291Z,50
2018-06-17T11:36:39.159Z,50
2018-06-17T11:38:40.981Z,50
2018-06-17T11:40:42.802Z,50
2018-06-17T11:42:44.776Z,50
2018-06-17T11:44:46.636Z,50
2018-06-17T11:48:11.195Z,50
2018-06-17T11:50:13.825Z,55
2018-06-17T11:52:16.073Z,55
2018-06-17T11:54:18.069Z,55
2018-06-17T11:56:19.736Z,60
2018-06-17T11:58:21.793Z,65
2018-06-17T12:00:23.593Z,80
2018-06-17T12:02:25.606Z,65
2018-06-17T12:04:27.431Z,70
2018-06-17T12:06:29.512Z,60
2018-06-17T12:08:31.532Z,55
2018-06-17T12:10:33.432Z,55
2018-06-17T12:12:35.381Z,50
2018-06-17T12:14:37.355Z,50
2018-06-17T12:17:21.769Z,45
2018-06-17T12:19:23.458Z,45
2018-06-17T12:21:24.978Z,50
2018-06-17T12:23:26.865Z,55
2018-06-17T12:25:28.908Z,60
2018-06-17T12:27:30.588Z,65
2018-06-17T12:29:32.343Z,65
2018-06-17T12:31:34.430Z,65
2018-06-17T12:33:36.066Z,55
2018-06-17T12:35:37.743Z,50
2018-06-17T12:38:26.983Z,55
2018-06-17T12:41:14.534Z,70
2018-06-17T12:43:16.469Z,70
2018-06-17T12:45:18.515Z,85
2018-06-17T12:47:20.215Z,85
2018-06-17T12:49:22.039Z,75
2018-06-17T12:51:23.720Z,85
2018-06-17T12:53:25.787Z,85
2018-06-17T12:55:27.593Z,85
2018-06-17T12:57:29.311Z,70
2018-06-17T12:59:31.288Z,70
2018-06-17T13:01:33.085Z,55
2018-06-17T13:03:35.136Z,55
2018-06-17T13:05:37.080Z,55
2018-06-17T13:07:39.004Z,60
2018-06-17T13:09:40.765Z,50
2018-06-17T13:11:42.446Z,55
2018-06-17T13:13:44.478Z,50
2018-06-17T13:15:46.249Z,45
2018-06-17T13:17:48.169Z,45
2018-06-17T13:19:50.155Z,50
2018-06-17T13:21:51.932Z,50
2018-06-17T13:23:53.819Z,50
2018-06-17T13:25:55.965Z,50
2018-06-17T13:27:57.805Z,45
2018-06-17T13:29:59.526Z,40
2018-06-17T13:32:01.286Z,40
2018-06-17T13:34:02.999Z,40
2018-06-17T13:36:05.209Z,40
2018-06-17T13:38:07.103Z,40
2018-06-17T13:40:09.047Z,40
2018-06-17T13:42:10.883Z,40
2018-06-17T13:44:12.703Z,40
2018-06-17T13:46:17.414Z,45
